createdAt,value
2024-01-06T00:00:53.572Z,10.55
2024-01-06T00:01:58.370Z,6.88
2024-01-06T00:03:00.756Z,8.05
2024-01-06T00:04:05.699Z,8.25
2024-01-06T00:05:08.953Z,6.80
2024-01-06T00:06:15.912Z,8.55
2024-01-06T00:07:18.242Z,5.43
2024-01-06T00:08:22.960Z,6.93
2024-01-06T00:09:27.731Z,7.13
2024-01-06T00:10:29.939Z,6.70
2024-01-06T00:11:34.671Z,7.00
2024-01-06T00:12:36.843Z,8.88
2024-01-06T00:13:41.571Z,6.75
2024-01-06T00:14:46.497Z,7.90
2024-01-06T00:15:51.339Z,9.57
2024-01-06T00:16:53.530Z,7.00
2024-01-06T00:17:58.345Z,7.40
2024-01-06T00:19:01.241Z,7.07
2024-01-06T00:20:06.588Z,8.95
2024-01-06T00:21:09.725Z,8.98
2024-01-06T00:22:14.884Z,8.35
2024-01-06T00:23:17.042Z,8.98
2024-01-06T00:24:24.457Z,6.70
2024-01-06T00:25:26.692Z,7.85
2024-01-06T00:26:31.507Z,10.20
2024-01-06T00:27:33.674Z,8.25
2024-01-06T00:28:38.738Z,9.93
2024-01-06T00:29:40.989Z,7.30
2024-01-06T00:30:46.013Z,8.20
2024-01-06T00:31:48.240Z,7.60
2024-01-06T00:32:53.010Z,9.48
2024-01-06T00:33:55.254Z,8.13
2024-01-06T00:34:57.791Z,7.93
2024-01-06T00:36:02.729Z,8.93
2024-01-06T00:37:05.268Z,9.48
2024-01-06T00:38:10.057Z,10.63
2024-01-06T00:39:15.058Z,11.35
2024-01-06T00:40:22.928Z,10.85
2024-01-06T00:41:25.091Z,9.20
2024-01-06T00:42:29.827Z,9.35
2024-01-06T00:43:32.005Z,8.85
2024-01-06T00:44:39.915Z,10.85
2024-01-06T00:45:42.216Z,8.70
2024-01-06T00:46:44.532Z,8.60
2024-01-06T00:47:49.610Z,7.28
2024-01-06T00:48:51.975Z,9.35
2024-01-06T00:49:56.769Z,8.90
2024-01-06T00:50:59.088Z,9.98
2024-01-06T00:52:03.831Z,8.18
2024-01-06T00:53:05.965Z,11.70
2024-01-06T00:54:08.156Z,9.95
2024-01-06T00:55:13.154Z,8.77
2024-01-06T00:56:17.968Z,10.82
2024-01-06T00:57:25.596Z,8.82
2024-01-06T00:58:27.903Z,6.20
2024-01-06T00:59:32.716Z,12.43
2024-01-06T01:00:35.104Z,9.40
2024-01-06T01:01:40.042Z,8.35
2024-01-06T01:02:42.384Z,8.85
2024-01-06T01:03:47.243Z,6.80
2024-01-06T01:04:49.533Z,18.02
2024-01-06T01:05:51.938Z,12.75
2024-01-06T01:06:56.693Z,12.57
2024-01-06T01:07:58.824Z,8.02
2024-01-06T01:09:03.726Z,8.45
2024-01-06T01:10:07.195Z,9.23
2024-01-06T01:11:12.133Z,9.68
2024-01-06T01:12:17.108Z,8.93
2024-01-06T01:13:19.261Z,8.73
2024-01-06T01:14:24.118Z,8.32
2024-01-06T01:15:26.345Z,6.82
2024-01-06T01:16:31.108Z,8.25
2024-01-06T01:17:33.300Z,7.00
2024-01-06T01:18:38.149Z,6.68
2024-01-06T01:19:40.428Z,8.10
2024-01-06T01:20:43.178Z,6.40
2024-01-06T01:21:47.946Z,8.77
2024-01-06T01:22:50.401Z,6.75
2024-01-06T01:23:55.048Z,10.30
2024-01-06T01:24:57.205Z,8.50
2024-01-06T01:26:01.959Z,7.95
2024-01-06T01:27:04.559Z,7.20
2024-01-06T01:28:09.378Z,7.07
2024-01-06T01:29:14.081Z,9.02
2024-01-06T01:30:16.583Z,7.95
2024-01-06T01:31:21.402Z,8.30
2024-01-06T01:32:23.788Z,9.13
2024-01-06T01:33:29.575Z,8.43
2024-01-06T01:34:31.888Z,7.60
2024-01-06T01:35:36.778Z,11.55
2024-01-06T01:36:38.949Z,7.65
2024-01-06T01:37:43.841Z,7.65
2024-01-06T01:38:45.992Z,9.35
2024-01-06T01:39:51.629Z,8.75
2024-01-06T01:40:53.715Z,7.00
2024-01-06T01:41:58.418Z,6.00
2024-01-06T01:43:00.530Z,6.90
2024-01-06T01:44:08.576Z,7.10
2024-01-06T01:45:13.009Z,6.80
2024-01-06T01:46:18.397Z,7.35
2024-01-06T01:47:22.828Z,7.18
2024-01-06T01:48:29.094Z,8.07
2024-01-06T01:49:31.508Z,7.22
2024-01-06T01:50:36.454Z,6.80
2024-01-06T01:51:39.821Z,6.60
2024-01-06T01:52:45.397Z,6.70
2024-01-06T01:53:47.892Z,7.60
2024-01-06T01:54:50.435Z,6.63
2024-01-06T01:55:55.421Z,7.65
2024-01-06T01:56:57.909Z,7.20
2024-01-06T01:58:02.729Z,8.98
2024-01-06T01:59:11.205Z,7.70
2024-01-06T02:00:17.448Z,9.02
2024-01-06T02:01:20.596Z,8.63
2024-01-06T02:02:26.246Z,9.50
2024-01-06T02:03:31.656Z,7.43
2024-01-06T02:04:36.689Z,9.02
2024-01-06T02:05:38.924Z,7.65
2024-01-06T02:06:43.701Z,7.18
2024-01-06T02:07:46.447Z,7.65
2024-01-06T02:08:51.255Z,9.00
2024-01-06T02:09:53.546Z,8.27
2024-01-06T02:10:59.566Z,7.65
2024-01-06T02:12:01.808Z,7.82
2024-01-06T02:13:13.049Z,7.90
2024-01-06T02:14:18.055Z,9.50
2024-01-06T02:15:23.292Z,8.85
2024-01-06T02:16:25.444Z,8.68
2024-01-06T02:17:30.249Z,8.73
2024-01-06T02:18:33.015Z,8.65
2024-01-06T02:19:35.496Z,8.38
2024-01-06T02:20:41.730Z,8.10
2024-01-06T02:21:45.424Z,8.18
2024-01-06T02:22:50.365Z,8.25
2024-01-06T02:23:55.082Z,7.88
2024-01-06T02:24:57.918Z,7.40
2024-01-06T02:26:02.623Z,8.20
2024-01-06T02:27:05.701Z,7.70
2024-01-06T02:28:10.434Z,11.75
2024-01-06T02:29:12.589Z,8.77
2024-01-06T02:30:17.624Z,9.48
2024-01-06T02:31:19.949Z,7.32
2024-01-06T02:32:24.879Z,8.80
2024-01-06T02:33:27.325Z,7.53
2024-01-06T02:34:34.119Z,7.72
2024-01-06T02:35:36.606Z,8.55
2024-01-06T02:36:41.509Z,8.05
2024-01-06T02:37:43.747Z,6.82
2024-01-06T02:38:51.179Z,7.15
2024-01-06T02:39:54.448Z,7.50
2024-01-06T02:40:59.253Z,6.40
2024-01-06T02:42:01.475Z,7.13
2024-01-06T02:43:06.435Z,7.13
2024-01-06T02:44:13.531Z,7.55
2024-01-06T02:45:18.771Z,8.38
2024-01-06T02:46:20.957Z,8.75
2024-01-06T02:47:25.698Z,9.50
2024-01-06T02:48:28.123Z,9.25
2024-01-06T02:49:33.090Z,8.25
2024-01-06T02:50:35.329Z,7.57
2024-01-06T02:51:40.157Z,9.40
2024-01-06T02:52:42.429Z,7.32
2024-01-06T02:53:47.172Z,8.85
2024-01-06T02:54:51.957Z,7.63
2024-01-06T02:55:56.922Z,10.38
2024-01-06T02:56:59.044Z,8.75
2024-01-06T02:58:04.017Z,7.68
2024-01-06T02:59:06.185Z,8.05
2024-01-06T03:00:14.122Z,7.22
2024-01-06T03:01:16.431Z,7.82
2024-01-06T03:02:21.366Z,10.40
2024-01-06T03:03:23.791Z,7.22
2024-01-06T03:04:28.684Z,9.07
2024-01-06T03:05:31.039Z,7.97
2024-01-06T03:06:37.117Z,7.32
2024-01-06T03:07:39.384Z,7.95
2024-01-06T03:08:44.155Z,9.38
2024-01-06T03:09:46.376Z,8.98
2024-01-06T03:10:53.897Z,8.25
2024-01-06T03:11:56.097Z,9.43
2024-01-06T03:13:00.978Z,9.77
2024-01-06T03:14:04.072Z,8.00
2024-01-06T03:15:09.787Z,7.88
2024-01-06T03:16:13.546Z,9.95
2024-01-06T03:17:19.306Z,40.78
2024-01-06T03:18:21.720Z,396.42
2024-01-06T03:19:29.044Z,440.88
2024-01-06T03:20:31.341Z,441.08
2024-01-06T03:21:33.548Z,452.42
2024-01-06T03:22:39.364Z,421.90
2024-01-06T03:23:41.581Z,427.15
2024-01-06T03:24:46.442Z,435.98
2024-01-06T03:25:51.173Z,438.80
2024-01-06T03:26:55.928Z,444.00
2024-01-06T03:27:58.057Z,435.40
2024-01-06T03:29:03.969Z,446.23
2024-01-06T03:30:08.054Z,447.80
2024-01-06T03:31:13.077Z,442.55
2024-01-06T03:32:15.361Z,446.92
2024-01-06T03:33:20.341Z,427.83
2024-01-06T03:34:22.784Z,446.38
2024-01-06T03:35:27.598Z,424.85
2024-01-06T03:36:29.868Z,432.15
2024-01-06T03:37:32.942Z,433.88
2024-01-06T03:38:38.161Z,442.73
2024-01-06T03:39:40.455Z,411.30
2024-01-06T03:40:45.441Z,419.08
2024-01-06T03:41:50.624Z,405.60
2024-01-06T03:42:55.598Z,394.95
2024-01-06T03:43:57.857Z,413.17
2024-01-06T03:45:00.016Z,411.13
2024-01-06T03:46:04.743Z,418.58
2024-01-06T03:47:07.327Z,390.85
2024-01-06T03:48:09.918Z,394.17
2024-01-06T03:49:14.862Z,385.52
2024-01-06T03:50:17.257Z,402.65
2024-01-06T03:51:23.458Z,395.83
2024-01-06T03:52:25.855Z,406.98
2024-01-06T03:53:30.640Z,407.35
2024-01-06T03:54:32.892Z,419.48
2024-01-06T03:55:37.770Z,387.65
2024-01-06T03:56:39.904Z,386.77
2024-01-06T03:57:47.339Z,378.55
2024-01-06T03:58:49.557Z,367.02
2024-01-06T03:59:54.311Z,357.33
2024-01-06T04:00:56.722Z,351.80
2024-01-06T04:02:01.538Z,354.98
2024-01-06T04:03:03.870Z,349.95
2024-01-06T04:04:09.228Z,358.05
2024-01-06T04:05:11.600Z,345.60
2024-01-06T04:06:16.556Z,314.73
2024-01-06T04:07:18.772Z,308.40
2024-01-06T04:08:23.546Z,317.92
2024-01-06T04:09:25.897Z,332.67
2024-01-06T04:10:30.772Z,335.63
2024-01-06T04:11:33.031Z,311.13
2024-01-06T04:12:37.767Z,318.25
2024-01-06T04:13:42.587Z,321.85
2024-01-06T04:14:47.356Z,336.98
2024-01-06T04:15:49.610Z,343.40
2024-01-06T04:16:54.439Z,337.27
2024-01-06T04:17:56.931Z,339.45
2024-01-06T04:19:01.884Z,333.95
2024-01-06T04:20:05.540Z,338.50
2024-01-06T04:21:10.379Z,317.05
2024-01-06T04:22:12.593Z,323.67
2024-01-06T04:23:17.413Z,323.05
2024-01-06T04:24:19.642Z,331.80
2024-01-06T04:25:25.136Z,323.83
2024-01-06T04:26:27.313Z,315.45
2024-01-06T04:27:32.398Z,288.02
2024-01-06T04:28:34.599Z,270.90
2024-01-06T04:29:41.997Z,251.13
2024-01-06T04:30:44.350Z,236.38
2024-01-06T04:31:49.342Z,237.00
2024-01-06T04:32:51.696Z,230.45
2024-01-06T04:33:56.635Z,237.57
2024-01-06T04:34:59.067Z,195.52
2024-01-06T04:36:03.883Z,187.10
2024-01-06T04:37:08.668Z,190.00
2024-01-06T04:38:10.843Z,186.55
2024-01-06T04:39:16.506Z,183.70
2024-01-06T04:40:18.897Z,189.73
2024-01-06T04:41:21.089Z,192.63
2024-01-06T04:42:26.299Z,193.65
2024-01-06T04:43:28.519Z,210.23
2024-01-06T04:44:30.891Z,206.05
2024-01-06T04:45:38.747Z,198.25
2024-01-06T04:46:40.959Z,184.13
2024-01-06T04:47:45.857Z,183.93
2024-01-06T04:48:48.861Z,197.77
2024-01-06T04:49:51.473Z,190.27
2024-01-06T04:50:56.347Z,199.65
2024-01-06T04:51:58.600Z,201.07
2024-01-06T04:53:00.878Z,195.35
2024-01-06T04:54:05.741Z,205.23
2024-01-06T04:55:08.575Z,211.55
2024-01-06T04:56:13.339Z,201.45
2024-01-06T04:57:15.739Z,198.50
2024-01-06T04:58:20.581Z,202.10
2024-01-06T04:59:22.849Z,194.45
2024-01-06T05:00:28.028Z,193.02
2024-01-06T05:01:33.309Z,177.55
2024-01-06T05:02:38.516Z,133.75
2024-01-06T05:03:40.778Z,125.65
2024-01-06T05:04:45.742Z,119.10
2024-01-06T05:05:48.212Z,119.78
2024-01-06T05:06:51.320Z,112.50
2024-01-06T05:07:56.252Z,109.68
2024-01-06T05:08:58.476Z,111.95
2024-01-06T05:10:03.553Z,106.40
2024-01-06T05:11:07.592Z,102.50
2024-01-06T05:12:12.804Z,100.53
2024-01-06T05:13:15.076Z,104.47
2024-01-06T05:14:19.961Z,102.88
2024-01-06T05:15:22.207Z,110.13
2024-01-06T05:16:27.044Z,122.07
2024-01-06T05:17:31.993Z,82.82
2024-01-06T05:18:37.069Z,70.15
2024-01-06T05:19:39.769Z,67.30
2024-01-06T05:20:44.907Z,82.25
2024-01-06T05:21:47.368Z,89.45
2024-01-06T05:22:52.207Z,93.78
2024-01-06T05:23:54.544Z,99.38
2024-01-06T05:24:59.427Z,104.25
2024-01-06T05:26:01.647Z,108.05
2024-01-06T05:27:04.175Z,115.40
2024-01-06T05:28:09.334Z,115.05
2024-01-06T05:29:11.586Z,116.30
2024-01-06T05:30:16.990Z,119.68
2024-01-06T05:31:19.230Z,112.75
2024-01-06T05:32:24.200Z,116.70
2024-01-06T05:33:29.175Z,121.45
2024-01-06T05:34:34.148Z,121.95
2024-01-06T05:35:36.484Z,120.28
2024-01-06T05:36:41.452Z,140.98
2024-01-06T05:37:43.938Z,156.18
2024-01-06T05:38:52.342Z,174.40
2024-01-06T05:39:56.075Z,166.82
2024-01-06T05:41:01.371Z,163.57
2024-01-06T05:42:03.674Z,155.80
2024-01-06T05:43:08.637Z,157.25
2024-01-06T05:44:11.042Z,177.02
2024-01-06T05:45:16.455Z,187.07
2024-01-06T05:46:23.231Z,173.60
2024-01-06T05:47:28.779Z,162.57
2024-01-06T05:48:33.961Z,123.38
2024-01-06T05:49:36.503Z,136.48
2024-01-06T05:50:42.191Z,137.52
2024-01-06T05:51:46.385Z,110.30
2024-01-06T05:52:51.663Z,114.28
2024-01-06T05:53:53.846Z,114.10
2024-01-06T05:54:59.735Z,117.97
2024-01-06T05:56:02.016Z,120.63
2024-01-06T05:57:07.280Z,117.68
2024-01-06T05:58:09.462Z,129.25
2024-01-06T05:59:14.262Z,127.15
2024-01-06T06:00:17.754Z,136.55
2024-01-06T06:01:23.131Z,148.10
2024-01-06T06:02:28.518Z,142.75
2024-01-06T06:03:33.585Z,146.35
2024-01-06T06:04:38.525Z,160.68
2024-01-06T06:05:40.801Z,150.27
2024-01-06T06:06:45.680Z,163.90
2024-01-06T06:07:47.968Z,149.80
2024-01-06T06:08:52.796Z,147.55
2024-01-06T06:09:55.447Z,144.77
2024-01-06T06:11:06.474Z,148.27
2024-01-06T06:12:09.711Z,144.60
2024-01-06T06:13:14.538Z,147.02
2024-01-06T06:14:16.772Z,147.20
2024-01-06T06:15:21.620Z,145.95
2024-01-06T06:16:23.859Z,153.38
2024-01-06T06:17:29.102Z,160.50
2024-01-06T06:18:34.461Z,157.15
2024-01-06T06:19:39.617Z,152.63
2024-01-06T06:20:43.174Z,158.15
2024-01-06T06:21:47.248Z,155.75
2024-01-06T06:22:52.601Z,160.80
2024-01-06T06:23:54.820Z,157.27
2024-01-06T06:24:59.558Z,148.65
2024-01-06T06:26:06.142Z,156.02
2024-01-06T06:27:13.058Z,163.90
2024-01-06T06:28:15.813Z,169.23
2024-01-06T06:29:22.256Z,184.63
2024-01-06T06:30:24.469Z,160.35
2024-01-06T06:31:29.552Z,162.65
2024-01-06T06:32:31.877Z,155.40
2024-01-06T06:33:40.996Z,171.32
2024-01-06T06:34:44.049Z,172.63
2024-01-06T06:35:48.877Z,165.50
2024-01-06T06:36:51.231Z,175.93
2024-01-06T06:37:56.060Z,181.73
2024-01-06T06:38:59.784Z,184.32
2024-01-06T06:40:04.577Z,176.63
2024-01-06T06:41:06.817Z,186.05
2024-01-06T06:42:12.033Z,113.75
2024-01-06T06:43:16.441Z,110.68
2024-01-06T06:44:22.559Z,121.22
2024-01-06T06:45:25.015Z,123.38
2024-01-06T06:46:29.923Z,108.25
2024-01-06T06:47:32.118Z,105.97
2024-01-06T06:48:42.366Z,107.72
2024-01-06T06:49:44.594Z,118.70
2024-01-06T06:50:49.767Z,115.20
2024-01-06T06:51:52.067Z,113.97
2024-01-06T06:52:57.007Z,114.95
2024-01-06T06:54:00.000Z,112.72
2024-01-06T06:55:04.847Z,116.47
2024-01-06T06:56:08.217Z,115.28
2024-01-06T06:57:13.153Z,112.97
2024-01-06T06:58:15.445Z,133.20
2024-01-06T06:59:20.543Z,127.55
2024-01-06T07:00:23.036Z,137.63
2024-01-06T07:01:32.284Z,140.57
2024-01-06T07:02:36.122Z,141.75
2024-01-06T07:03:43.750Z,138.38
2024-01-06T07:04:46.380Z,143.23
2024-01-06T07:05:51.604Z,162.70
2024-01-06T07:06:54.030Z,158.32
2024-01-06T07:07:58.995Z,160.10
2024-01-06T07:09:01.286Z,167.63
2024-01-06T07:10:07.024Z,169.25
2024-01-06T07:11:09.604Z,164.25
2024-01-06T07:12:14.576Z,178.10
2024-01-06T07:13:16.947Z,176.13
2024-01-06T07:14:21.815Z,177.25
2024-01-06T07:15:24.107Z,178.98
2024-01-06T07:16:28.942Z,172.88
2024-01-06T07:17:31.247Z,160.32
2024-01-06T07:18:36.758Z,180.70
2024-01-06T07:19:41.832Z,163.05
2024-01-06T07:20:46.762Z,188.10
2024-01-06T07:21:49.117Z,193.40
2024-01-06T07:22:54.012Z,203.18
2024-01-06T07:23:56.332Z,193.10
2024-01-06T07:25:01.210Z,194.82
2024-01-06T07:26:03.660Z,183.32
2024-01-06T07:27:08.504Z,222.90
2024-01-06T07:28:10.828Z,253.45
2024-01-06T07:29:15.788Z,194.88
2024-01-06T07:30:18.445Z,195.85
2024-01-06T07:31:23.417Z,198.05
2024-01-06T07:32:26.243Z,199.93
2024-01-06T07:33:31.196Z,185.38
2024-01-06T07:34:33.781Z,194.07
2024-01-06T07:35:44.688Z,182.90
2024-01-06T07:36:47.006Z,182.75
2024-01-06T07:37:51.896Z,197.35
2024-01-06T07:38:54.221Z,199.80
2024-01-06T07:39:59.261Z,185.57
2024-01-06T07:41:01.763Z,177.20
2024-01-06T07:42:07.457Z,130.32
2024-01-06T07:43:10.192Z,161.80
2024-01-06T07:44:15.115Z,146.18
2024-01-06T07:45:17.437Z,172.50
2024-01-06T07:46:22.305Z,152.02
2024-01-06T07:47:27.389Z,147.38
2024-01-06T07:48:32.508Z,138.88
2024-01-06T07:49:35.047Z,136.35
2024-01-06T07:50:42.738Z,128.73
2024-01-06T07:51:45.595Z,139.73
2024-01-06T07:52:50.633Z,136.27
2024-01-06T07:53:53.192Z,128.40
2024-01-06T07:54:58.292Z,135.35
2024-01-06T07:56:01.221Z,134.70
2024-01-06T07:57:06.657Z,135.45
2024-01-06T07:58:09.481Z,127.03
2024-01-06T07:59:14.963Z,121.53
2024-01-06T08:00:18.067Z,122.30
2024-01-06T08:01:23.281Z,123.25
2024-01-06T08:02:26.130Z,127.13
2024-01-06T08:03:31.227Z,119.22
2024-01-06T08:04:33.729Z,127.82
2024-01-06T08:05:39.126Z,138.48
2024-01-06T08:06:44.237Z,144.65
2024-01-06T08:07:49.136Z,139.45
2024-01-06T08:08:52.125Z,145.18
2024-01-06T08:09:54.556Z,142.77
2024-01-06T08:10:59.665Z,135.43
2024-01-06T08:12:02.809Z,130.35
2024-01-06T08:13:08.382Z,133.43
2024-01-06T08:14:12.250Z,131.18
2024-01-06T08:15:17.286Z,143.38
2024-01-06T08:16:19.857Z,141.25
2024-01-06T08:17:24.824Z,141.13
2024-01-06T08:18:27.422Z,141.18
2024-01-06T08:19:34.691Z,143.23
2024-01-06T08:20:37.089Z,136.25
2024-01-06T08:21:42.018Z,147.02
2024-01-06T08:22:47.006Z,148.15
2024-01-06T08:23:51.920Z,144.70
2024-01-06T08:24:54.378Z,171.27
2024-01-06T08:25:59.501Z,137.40
2024-01-06T08:27:01.643Z,132.95
2024-01-06T08:28:06.987Z,127.50
2024-01-06T08:29:09.423Z,114.35
2024-01-06T08:30:13.095Z,94.68
2024-01-06T08:31:18.202Z,96.57
2024-01-06T08:32:20.475Z,96.55
2024-01-06T08:33:22.838Z,91.60
2024-01-06T08:34:32.224Z,91.60
2024-01-06T08:35:41.475Z,87.32
2024-01-06T08:36:46.585Z,95.53
2024-01-06T08:37:51.921Z,102.30
2024-01-06T08:38:56.948Z,103.35
2024-01-06T08:39:59.428Z,98.60
2024-01-06T08:41:04.307Z,120.88
2024-01-06T08:42:06.986Z,102.35
2024-01-06T08:43:11.797Z,97.43
2024-01-06T08:44:14.035Z,93.00
2024-01-06T08:45:19.111Z,43.55
2024-01-06T08:46:21.534Z,20.65
2024-01-06T08:47:26.767Z,10.75
2024-01-06T08:48:30.069Z,11.13
2024-01-06T08:49:36.408Z,10.45
2024-01-06T08:50:38.790Z,10.38
2024-01-06T08:51:43.734Z,12.07
2024-01-06T08:52:46.124Z,9.55
2024-01-06T08:53:54.656Z,7.40
2024-01-06T08:54:57.238Z,8.18
2024-01-06T08:56:02.183Z,6.85
2024-01-06T08:57:05.074Z,7.50
2024-01-06T08:58:10.055Z,6.85
2024-01-06T08:59:12.401Z,8.85
2024-01-06T09:00:18.827Z,9.15
2024-01-06T09:01:22.065Z,8.38
2024-01-06T09:02:27.052Z,7.18
2024-01-06T09:03:29.548Z,7.65
2024-01-06T09:04:34.591Z,6.35
2024-01-06T09:05:37.591Z,7.35
2024-01-06T09:06:40.142Z,8.52
2024-01-06T09:07:46.074Z,6.97
2024-01-06T09:08:50.993Z,8.85
2024-01-06T09:09:55.977Z,7.40
2024-01-06T09:10:58.777Z,15.35
2024-01-06T09:12:03.820Z,8.27
2024-01-06T09:13:06.076Z,9.55
2024-01-06T09:14:11.922Z,9.82
2024-01-06T09:15:14.177Z,10.23
2024-01-06T09:16:19.838Z,8.02
2024-01-06T09:17:23.966Z,6.05
2024-01-06T09:18:30.212Z,8.82
2024-01-06T09:19:32.568Z,9.00
2024-01-06T09:20:37.494Z,6.63
2024-01-06T09:21:39.722Z,7.00
2024-01-06T09:22:44.586Z,6.03
2024-01-06T09:23:46.787Z,6.80
2024-01-06T09:24:54.751Z,5.57
2024-01-06T09:25:57.131Z,6.05
2024-01-06T09:27:02.007Z,6.40
2024-01-06T09:28:04.942Z,6.32
2024-01-06T09:30:13.236Z,5.93
2024-01-06T09:31:18.463Z,5.90
2024-01-06T09:32:21.314Z,6.28
2024-01-06T09:33:26.359Z,5.82
2024-01-06T09:34:28.962Z,5.75
2024-01-06T09:35:34.000Z,6.30
2024-01-06T09:36:36.908Z,6.28
2024-01-06T09:37:41.887Z,6.50
2024-01-06T09:38:44.210Z,5.93
2024-01-06T09:39:49.199Z,6.47
2024-01-06T09:40:55.285Z,6.03
2024-01-06T09:42:00.263Z,7.03
2024-01-06T09:43:03.451Z,6.88
2024-01-06T09:44:08.524Z,7.03
2024-01-06T09:45:11.295Z,7.60
2024-01-06T09:46:26.235Z,7.22
2024-01-06T09:47:33.593Z,6.63
2024-01-06T09:48:44.146Z,9.13
2024-01-06T09:49:50.558Z,12.13
2024-01-06T09:51:00.685Z,5.72
2024-01-06T09:52:06.200Z,7.65
2024-01-06T09:53:13.372Z,6.90
2024-01-06T09:54:16.435Z,6.32
2024-01-06T09:55:21.477Z,6.15
2024-01-06T09:56:27.461Z,8.73
2024-01-06T09:57:33.207Z,6.85
2024-01-06T09:58:38.164Z,6.70
2024-01-06T09:59:45.378Z,6.40
2024-01-06T10:00:51.018Z,8.02
2024-01-06T10:01:57.025Z,8.05
2024-01-06T10:03:00.965Z,8.75
2024-01-06T10:04:06.625Z,7.22
2024-01-06T10:05:09.741Z,6.47
2024-01-06T10:06:14.856Z,6.95
2024-01-06T10:07:17.272Z,5.82
2024-01-06T10:08:22.695Z,6.35
2024-01-06T10:09:28.971Z,8.23
2024-01-06T10:10:34.313Z,14.32
2024-01-06T10:11:42.743Z,6.10
2024-01-06T10:12:45.422Z,5.88
2024-01-06T10:13:52.577Z,4.47
2024-01-06T10:14:55.436Z,6.30
2024-01-06T10:16:00.732Z,5.32
2024-01-06T10:17:03.261Z,6.50
2024-01-06T10:18:09.828Z,6.47
2024-01-06T10:19:12.585Z,5.72
2024-01-06T10:20:19.096Z,5.20
2024-01-06T10:21:21.997Z,5.75
2024-01-06T10:22:27.222Z,4.80
2024-01-06T10:23:30.194Z,5.70
2024-01-06T10:24:35.238Z,5.43
2024-01-06T10:25:37.696Z,5.65
2024-01-06T10:26:45.389Z,6.28
2024-01-06T10:27:47.678Z,5.55
2024-01-06T10:28:53.596Z,5.80
2024-01-06T10:29:55.927Z,6.07
2024-01-06T10:31:04.044Z,7.63
2024-01-06T10:32:07.484Z,6.32
2024-01-06T10:33:15.162Z,6.32
2024-01-06T10:34:17.855Z,6.30
2024-01-06T10:35:23.127Z,5.93
2024-01-06T10:36:26.641Z,6.15
2024-01-06T10:37:32.221Z,7.00
2024-01-06T10:38:35.916Z,9.98
2024-01-06T10:39:41.095Z,14.85
2024-01-06T10:40:58.055Z,7.93
2024-01-06T10:42:08.081Z,8.98
2024-01-06T10:43:11.917Z,9.02
2024-01-06T10:44:18.423Z,9.95
2024-01-06T10:45:20.784Z,7.80
2024-01-06T10:46:24.395Z,7.97
2024-01-06T10:47:31.918Z,8.23
2024-01-06T10:48:35.610Z,9.27
2024-01-06T10:49:41.090Z,9.23
2024-01-06T10:50:45.352Z,7.70
2024-01-06T10:51:53.025Z,7.00
2024-01-06T10:52:57.857Z,7.03
2024-01-06T10:54:05.510Z,6.60
2024-01-06T10:55:08.294Z,9.40
2024-01-06T10:56:14.337Z,7.13
2024-01-06T10:57:21.313Z,7.75
2024-01-06T10:58:27.163Z,7.70
2024-01-06T10:59:31.865Z,7.90
2024-01-06T11:00:36.902Z,10.45
2024-01-06T11:01:40.669Z,7.80
2024-01-06T11:02:43.536Z,12.10
2024-01-06T11:03:50.155Z,10.85
2024-01-06T11:04:52.676Z,11.18
2024-01-06T11:05:58.184Z,12.60
2024-01-06T11:07:03.772Z,7.93
2024-01-06T11:08:09.851Z,11.40
2024-01-06T11:09:18.533Z,12.25
2024-01-06T11:10:24.817Z,12.43
2024-01-06T11:11:27.443Z,12.32
2024-01-06T11:12:33.005Z,12.77
2024-01-06T11:13:39.870Z,10.55
2024-01-06T11:14:42.210Z,11.55
2024-01-06T11:15:48.610Z,15.90
2024-01-06T11:16:51.747Z,13.20
2024-01-06T11:17:55.524Z,12.82
2024-01-06T11:19:00.858Z,8.27
2024-01-06T11:20:07.386Z,9.63
2024-01-06T11:21:29.920Z,12.05
2024-01-06T11:22:33.659Z,11.80
2024-01-06T11:23:39.928Z,8.55
2024-01-06T11:24:48.608Z,13.57
2024-01-06T11:25:53.691Z,7.90
2024-01-06T11:26:58.265Z,7.18
2024-01-06T11:28:13.820Z,10.02
2024-01-06T11:29:16.346Z,15.35
2024-01-06T11:30:26.015Z,8.45
2024-01-06T11:31:30.645Z,14.02
2024-01-06T11:32:36.656Z,11.55
2024-01-06T11:33:46.012Z,14.43
2024-01-06T11:34:51.708Z,12.57
2024-01-06T11:35:56.806Z,8.57
2024-01-06T11:36:59.421Z,12.60
2024-01-06T11:38:05.925Z,13.98
2024-01-06T11:39:08.276Z,16.17
2024-01-06T11:40:15.145Z,11.65
2024-01-06T11:41:52.940Z,21.42
2024-01-06T11:42:59.679Z,11.73
2024-01-06T11:44:08.711Z,12.60
2024-01-06T11:45:10.990Z,15.93
2024-01-06T11:46:16.660Z,12.20
2024-01-06T11:47:24.771Z,21.05
2024-01-06T11:48:33.889Z,12.27
2024-01-06T11:49:36.372Z,13.65
2024-01-06T11:50:43.559Z,11.90
2024-01-06T11:51:45.834Z,9.32
2024-01-06T11:52:48.217Z,10.65
2024-01-06T11:53:53.107Z,15.40
2024-01-06T11:54:57.230Z,13.55
2024-01-06T11:56:03.916Z,11.00
2024-01-06T11:57:06.348Z,12.85
2024-01-06T11:58:11.617Z,11.48
2024-01-06T11:59:16.986Z,11.73
2024-01-06T12:00:22.734Z,8.02
2024-01-06T12:01:25.275Z,8.10
2024-01-06T12:02:30.283Z,11.77
2024-01-06T12:03:32.597Z,14.55
2024-01-06T12:04:37.442Z,9.55
2024-01-06T12:05:39.764Z,13.05
2024-01-06T12:06:44.695Z,11.25
2024-01-06T12:07:55.479Z,11.98
2024-01-06T12:09:08.072Z,11.88
2024-01-06T12:10:10.938Z,13.63
2024-01-06T12:11:15.798Z,12.82
2024-01-06T12:12:19.026Z,11.73
2024-01-06T12:13:23.854Z,11.38
2024-01-06T12:14:28.606Z,12.10
2024-01-06T12:15:38.995Z,10.05
2024-01-06T12:16:41.306Z,10.60
2024-01-06T12:17:47.609Z,10.48
2024-01-06T12:18:49.940Z,11.75
2024-01-06T12:19:53.047Z,11.20
2024-01-06T12:20:58.328Z,12.52
2024-01-06T12:22:00.917Z,12.23
2024-01-06T12:23:07.825Z,10.38
2024-01-06T12:24:16.728Z,11.63
2024-01-06T12:25:21.708Z,11.05
2024-01-06T12:26:23.974Z,10.98
2024-01-06T12:27:29.250Z,9.80
2024-01-06T12:28:31.556Z,10.10
2024-01-06T12:29:41.953Z,10.75
2024-01-06T12:30:46.034Z,8.85
2024-01-06T12:31:51.119Z,14.27
2024-01-06T12:32:54.289Z,9.80
2024-01-06T12:33:59.920Z,12.07
2024-01-06T12:35:02.354Z,12.95
2024-01-06T12:36:14.252Z,13.38
2024-01-06T12:37:24.254Z,12.73
2024-01-06T12:38:29.477Z,12.15
2024-01-06T12:39:32.590Z,13.98
2024-01-06T12:40:39.736Z,11.98
2024-01-06T12:41:42.515Z,13.40
2024-01-06T12:42:47.605Z,14.25
2024-01-06T12:43:49.825Z,14.45
2024-01-06T12:44:54.716Z,14.85
2024-01-06T12:45:59.838Z,13.73
2024-01-06T12:47:02.019Z,15.75
2024-01-06T12:48:12.992Z,14.23
2024-01-06T12:49:15.459Z,16.15
2024-01-06T12:50:17.901Z,19.40
2024-01-06T12:51:22.844Z,20.60
2024-01-06T12:52:25.483Z,23.02
2024-01-06T12:53:30.486Z,14.00
2024-01-06T12:54:32.749Z,20.75
2024-01-06T12:55:37.540Z,13.32
2024-01-06T12:56:40.303Z,19.85
2024-01-06T12:57:46.887Z,11.27
2024-01-06T12:58:49.402Z,13.98
2024-01-06T12:59:56.779Z,14.88
2024-01-06T13:00:59.266Z,14.02
2024-01-06T13:02:01.604Z,12.45
2024-01-06T13:03:08.278Z,11.90
2024-01-06T13:04:11.246Z,11.75
2024-01-06T13:05:17.189Z,13.23
2024-01-06T13:06:20.551Z,12.55
2024-01-06T13:07:25.924Z,12.65
2024-01-06T13:08:29.192Z,14.40
2024-01-06T13:09:34.369Z,11.52
2024-01-06T13:10:37.202Z,11.00
2024-01-06T13:11:42.099Z,12.10
2024-01-06T13:12:44.381Z,13.40
2024-01-06T13:13:49.250Z,12.50
2024-01-06T13:14:54.100Z,11.95
2024-01-06T13:15:59.030Z,11.70
2024-01-06T13:17:01.385Z,18.38
2024-01-06T13:18:06.552Z,14.43
2024-01-06T13:19:08.985Z,17.13
2024-01-06T13:20:14.494Z,13.07
2024-01-06T13:21:16.848Z,14.50
2024-01-06T13:22:23.467Z,11.57
2024-01-06T13:23:25.792Z,12.70
2024-01-06T13:24:30.768Z,13.07
2024-01-06T13:25:33.029Z,14.15
2024-01-06T13:26:35.225Z,11.88
2024-01-06T13:27:40.174Z,13.82
2024-01-06T13:28:42.324Z,12.20
2024-01-06T13:29:47.150Z,12.82
2024-01-06T13:30:52.141Z,11.13
2024-01-06T13:31:58.794Z,11.35
2024-01-06T13:33:01.896Z,12.57
2024-01-06T13:34:07.330Z,13.82
2024-01-06T13:35:11.959Z,14.20
2024-01-06T13:36:14.392Z,14.40
2024-01-06T13:37:19.384Z,12.20
2024-01-06T13:38:23.582Z,17.90
2024-01-06T13:39:28.475Z,17.83
2024-01-06T13:40:30.726Z,12.02
2024-01-06T13:41:40.383Z,12.90
2024-01-06T13:42:43.267Z,13.00
2024-01-06T13:43:52.187Z,12.35
2024-01-06T13:44:54.708Z,13.80
2024-01-06T13:46:03.016Z,14.65
2024-01-06T13:47:06.218Z,15.38
2024-01-06T13:48:10.561Z,16.45
2024-01-06T13:49:15.935Z,16.08
2024-01-06T13:50:19.971Z,14.30
2024-01-06T13:51:24.974Z,15.27